Time;durP1;ratioP1;P1;durP2;ratioP2;P2;SDS_P1;SDS_P2;PMS_P1;PMS_P2;Temp;Humidity;BMP_temperature;BMP_pressure;BME280_temperature;BME280_humidity;BME280_pressure;Samples;Min_cycle;Max_cycle;Signal;HPM_P1;HPM_P2
2022/09/30 00:01:38;;;;;;;1.20;1.10;;;9.20;99.90;;;;;;5007305;28;20148;-59
2022/09/30 00:04:05;;;;;;;3.03;0.90;;;9.20;99.90;;;;;;5026488;28;20404;-64
2022/09/30 00:06:31;;;;;;;1.75;0.82;;;9.30;99.90;;;;;;5008100;28;20068;-67
2022/09/30 00:08:57;;;;;;;1.65;0.70;;;9.30;99.90;;;;;;5009299;28;20496;-69
2022/09/30 00:11:27;;;;;;;8.68;0.80;;;9.30;99.90;;;;;;5025161;28;20107;-60
2022/09/30 00:13:54;;;;;;;1.42;0.77;;;9.40;99.90;;;;;;5009854;28;20038;-57
2022/09/30 00:16:21;;;;;;;2.55;1.00;;;9.30;99.90;;;;;;5009102;28;20037;-54
2022/09/30 00:18:48;;;;;;;4.53;0.85;;;9.40;99.90;;;;;;5023264;28;20132;-64
2022/09/30 00:21:15;;;;;;;1.45;0.90;;;9.40;99.90;;;;;;5009234;28;20049;-56
2022/09/30 00:23:42;;;;;;;3.58;0.85;;;9.40;99.90;;;;;;5024815;28;20053;-54
2022/09/30 00:26:13;;;;;;;1.45;0.90;;;9.40;99.90;;;;;;5009304;28;20136;-61
2022/09/30 00:28:40;;;;;;;3.45;1.30;;;9.40;99.90;;;;;;5008182;28;20156;-66
2022/09/30 00:31:10;;;;;;;1.08;0.98;;;9.40;99.90;;;;;;5019865;28;20584;-61
2022/09/30 00:33:35;;;;;;;0.90;0.90;;;9.40;99.90;;;;;;5008954;28;20048;-58
2022/09/30 00:36:02;;;;;;;1.77;1.00;;;9.40;99.90;;;;;;5008548;28;20045;-54
2022/09/30 00:38:28;;;;;;;1.67;1.55;;;9.30;99.90;;;;;;5009699;28;20053;-59
2022/09/30 00:40:55;;;;;;;7.28;3.10;;;9.30;99.90;;;;;;4996896;28;20046;-63
2022/09/30 00:43:40;;;;;;;5.85;2.55;;;9.30;99.90;;;;;;5025715;28;20550;-63
2022/09/30 00:46:16;;;;;;;4.22;2.10;;;9.30;99.90;;;;;;5014410;28;20119;-63
2022/09/30 00:48:42;;;;;;;10.50;2.15;;;9.20;99.90;;;;;;5025740;28;20861;-64
2022/09/30 00:51:09;;;;;;;3.65;1.85;;;9.20;99.90;;;;;;5026089;28;20054;-56
2022/09/30 00:53:53;;;;;;;6.70;2.67;;;9.10;99.90;;;;;;5007632;28;20041;-66
2022/09/30 00:56:32;;;;;;;3.40;2.30;;;9.00;99.90;;;;;;5026275;28;20061;-64
2022/09/30 00:59:40;;;;;;;2.40;2.20;;;9.10;99.90;;;;;;5025546;28;20049;-61
2022/09/30 01:02:07;;;;;;;4.82;2.15;;;9.00;99.90;;;;;;4968333;28;20124;-56
2022/09/30 01:04:34;;;;;;;4.63;2.15;;;9.10;99.90;;;;;;4971117;28;20449;-60
2022/09/30 01:07:03;;;;;;;4.85;2.15;;;9.10;99.90;;;;;;4974829;28;20053;-68
2022/09/30 01:09:32;;;;;;;4.25;2.30;;;9.10;99.90;;;;;;4991190;28;20674;-59
2022/09/30 01:11:58;;;;;;;2.20;1.88;;;9.10;99.90;;;;;;5006120;28;20046;-59
2022/09/30 01:14:27;;;;;;;2.88;2.35;;;9.10;99.90;;;;;;5005050;28;20057;-53
2022/09/30 01:16:53;;;;;;;3.72;2.20;;;9.00;99.90;;;;;;4987824;28;20045;-54
2022/09/30 01:19:28;;;;;;;2.33;1.90;;;9.00;99.90;;;;;;5000857;28;20076;-66
2022/09/30 01:21:59;;;;;;;2.10;1.88;;;9.00;99.90;;;;;;5006215;28;20140;-53
2022/09/30 01:25:03;;;;;;;2.95;2.13;;;9.00;99.90;;;;;;5000610;28;20045;-59
2022/09/30 01:27:53;;;;;;;4.97;2.45;;;9.00;99.90;;;;;;5015344;28;20045;-59
2022/09/30 01:30:56;;;;;;;4.32;2.65;;;9.00;99.90;;;;;;5005839;28;20054;-59
2022/09/30 01:33:28;;;;;;;3.45;2.53;;;9.00;99.90;;;;;;5003262;28;20478;-52
2022/09/30 01:36:15;;;;;;;4.35;2.72;;;9.00;99.90;;;;;;4995768;28;20125;-64
2022/09/30 01:38:41;;;;;;;1.92;1.83;;;9.00;99.90;;;;;;4989984;28;20073;-58
2022/09/30 01:41:27;;;;;;;3.80;2.03;;;9.00;99.90;;;;;;4999953;28;20417;-68
2022/09/30 01:44:26;;;;;;;5.75;2.65;;;8.90;99.90;;;;;;5000100;28;20038;-55
2022/09/30 01:46:58;;;;;;;4.25;2.40;;;8.90;99.90;;;;;;5004851;28;20096;-58
2022/09/30 01:49:45;;;;;;;8.32;2.60;;;8.90;99.90;;;;;;4988910;28;20038;-54
2022/09/30 01:52:32;;;;;;;7.10;2.58;;;8.90;99.90;;;;;;4999078;28;20062;-64
2022/09/30 01:54:58;;;;;;;4.35;2.63;;;8.90;99.90;;;;;;5004353;28;20104;-53
2022/09/30 01:57:41;;;;;;;12.80;2.70;;;8.90;99.90;;;;;;5003928;28;20096;-56
2022/09/30 02:00:12;;;;;;;5.25;2.90;;;8.90;99.90;;;;;;4977206;28;20085;-61
2022/09/30 02:02:52;;;;;;;9.07;2.60;;;8.90;99.90;;;;;;4991529;28;20048;-59
2022/09/30 02:05:20;;;;;;;4.97;2.80;;;8.90;99.90;;;;;;4995897;28;20408;-60
2022/09/30 02:07:57;;;;;;;3.25;3.05;;;8.90;99.90;;;;;;4984827;28;20593;-66
2022/09/30 02:10:38;;;;;;;2.75;2.55;;;9.00;99.90;;;;;;5008959;28;20401;-61
2022/09/30 02:13:27;;;;;;;3.55;2.20;;;8.90;99.90;;;;;;4997242;28;20088;-57
2022/09/30 02:15:56;;;;;;;2.60;2.40;;;8.90;99.90;;;;;;5027471;28;20084;-55
2022/09/30 02:18:39;;;;;;;5.22;2.50;;;8.90;99.90;;;;;;5029825;28;20567;-62
2022/09/30 02:21:07;;;;;;;3.10;2.28;;;8.80;99.90;;;;;;5013689;28;20381;-54
2022/09/30 02:23:40;;;;;;;6.40;2.85;;;8.80;99.90;;;;;;5013015;28;20495;-60
2022/09/30 02:26:28;;;;;;;3.65;2.45;;;8.70;99.90;;;;;;5029048;28;20057;-55
2022/09/30 02:29:03;;;;;;;2.83;2.10;;;8.70;99.90;;;;;;5013934;28;20091;-62
2022/09/30 02:31:33;;;;;;;2.88;2.40;;;8.70;99.90;;;;;;5020346;28;20034;-61
2022/09/30 02:34:14;;;;;;;3.50;2.45;;;8.70;99.90;;;;;;4981603;28;20057;-58
2022/09/30 02:37:16;;;;;;;2.50;2.30;;;8.60;99.90;;;;;;4994615;28;20043;-62
2022/09/30 02:39:48;;;;;;;3.40;2.45;;;8.50;99.90;;;;;;5011646;28;20099;-58
2022/09/30 02:42:20;;;;;;;2.97;2.40;;;8.40;99.90;;;;;;4993299;28;20602;-64
2022/09/30 02:44:49;;;;;;;3.35;2.40;;;8.40;99.90;;;;;;5011324;28;20056;-62
2022/09/30 02:47:35;;;;;;;2.78;2.25;;;8.40;99.90;;;;;;5029431;28;20051;-60
2022/09/30 02:50:13;;;;;;;3.50;2.53;;;8.40;99.90;;;;;;4974186;28;20052;-62
2022/09/30 02:52:49;;;;;;;4.10;2.78;;;8.40;99.90;;;;;;5030081;28;20049;-54
2022/09/30 02:55:20;;;;;;;7.15;2.72;;;8.40;99.90;;;;;;5003435;28;20050;-58
2022/09/30 02:58:13;;;;;;;4.15;2.83;;;8.40;99.90;;;;;;5020439;28;20064;-63
2022/09/30 03:00:39;;;;;;;3.30;3.03;;;8.40;99.90;;;;;;5030579;28;20127;-58
2022/09/30 03:03:15;;;;;;;4.32;2.72;;;8.50;99.90;;;;;;4994608;28;20049;-62
2022/09/30 03:05:42;;;;;;;8.00;3.03;;;8.60;99.90;;;;;;4997952;28;20044;-62
2022/09/30 03:08:09;;;;;;;7.03;3.33;;;8.60;99.90;;;;;;4996368;28;20500;-60
2022/09/30 03:10:35;;;;;;;9.57;3.22;;;8.70;99.90;;;;;;5012797;28;20060;-67
2022/09/30 03:13:18;;;;;;;3.90;3.05;;;8.70;99.90;;;;;;5047721;28;20490;-56
2022/09/30 03:16:15;;;;;;;5.00;3.00;;;8.70;99.90;;;;;;5023974;28;20084;-60
2022/09/30 03:19:18;;;;;;;5.20;3.10;;;8.80;99.90;;;;;;5048317;28;20061;-59
2022/09/30 03:22:17;;;;;;;5.80;2.78;;;8.70;99.90;;;;;;5047476;28;20053;-57
2022/09/30 03:24:58;;;;;;;2.78;2.50;;;8.70;99.90;;;;;;5022835;28;20140;-58
2022/09/30 03:27:54;;;;;;;6.65;2.90;;;8.80;99.90;;;;;;5013653;28;20206;-55
2022/09/30 03:30:27;;;;;;;6.07;2.42;;;8.70;99.90;;;;;;5012071;28;20037;-54
2022/09/30 03:33:06;;;;;;;2.35;2.17;;;8.70;99.90;;;;;;5027328;28;20041;-62
2022/09/30 03:36:00;;;;;;;3.65;2.15;;;8.60;99.90;;;;;;5019454;28;20413;-61
2022/09/30 03:38:56;;;;;;;2.20;2.10;;;8.40;99.90;;;;;;5011400;28;20042;-57
2022/09/30 03:41:38;;;;;;;3.13;2.83;;;8.20;99.90;;;;;;5029607;28;20048;-62
2022/09/30 03:44:09;;;;;;;6.05;2.40;;;8.20;99.90;;;;;;5030192;28;20052;-57
2022/09/30 03:46:41;;;;;;;5.90;3.30;;;8.10;99.90;;;;;;5013612;28;20128;-64
2022/09/30 03:49:15;;;;;;;2.55;2.30;;;8.20;99.90;;;;;;5010691;28;20099;-59
2022/09/30 03:51:41;;;;;;;3.03;2.83;;;8.10;99.90;;;;;;5023235;28;20048;-55
2022/09/30 03:54:10;;;;;;;2.50;2.35;;;8.20;99.90;;;;;;5030207;28;20071;-60
2022/09/30 03:56:42;;;;;;;4.10;2.70;;;8.20;99.90;;;;;;5017685;28;20049;-58
2022/09/30 03:59:25;;;;;;;4.70;2.63;;;8.10;99.90;;;;;;5047350;28;20085;-58
2022/09/30 04:01:51;;;;;;;8.35;3.20;;;8.00;99.90;;;;;;5012821;28;20880;-60
2022/09/30 04:04:17;;;;;;;3.42;3.10;;;8.00;99.90;;;;;;5028262;28;20106;-62
2022/09/30 04:06:43;;;;;;;2.97;2.63;;;8.00;99.90;;;;;;5039674;28;20045;-64
2022/09/30 04:09:08;;;;;;;3.30;3.00;;;8.00;99.90;;;;;;5011596;28;20085;-59
2022/09/30 04:11:34;;;;;;;103.05;4.30;;;8.00;99.90;;;;;;5047414;28;20055;-60
2022/09/30 04:14:00;;;;;;;20.98;3.28;;;7.90;99.90;;;;;;5012001;28;20044;-57
2022/09/30 04:16:29;;;;;;;30.63;3.30;;;7.80;99.90;;;;;;5028099;28;20053;-65
2022/09/30 04:18:58;;;;;;;16.02;2.97;;;7.70;99.90;;;;;;5008833;28;20061;-63
2022/09/30 04:21:27;;;;;;;25.48;3.33;;;7.70;99.90;;;;;;5025645;28;20124;-67
2022/09/30 04:23:55;;;;;;;41.03;3.30;;;7.80;99.90;;;;;;5026220;28;20045;-56
2022/09/30 04:26:21;;;;;;;76.65;2.97;;;7.80;99.90;;;;;;5008327;28;20049;-58
2022/09/30 04:28:47;;;;;;;35.42;2.78;;;7.70;99.90;;;;;;5013278;28;20078;-67
2022/09/30 04:31:18;;;;;;;41.60;2.42;;;7.70;99.90;;;;;;5004427;28;20423;-50
2022/09/30 04:33:44;;;;;;;51.78;2.70;;;7.60;99.90;;;;;;5025466;28;20408;-60
2022/09/30 04:36:10;;;;;;;29.80;1.50;;;7.60;99.90;;;;;;5025849;28;20045;-54
2022/09/30 04:38:35;;;;;;;35.03;1.40;;;7.50;99.90;;;;;;5017472;28;20057;-62
2022/09/30 04:41:04;;;;;;;61.00;2.00;;;7.30;99.90;;;;;;5015503;28;20381;-56
2022/09/30 04:43:30;;;;;;;42.92;2.05;;;7.20;99.90;;;;;;5002660;28;20037;-52
2022/09/30 04:45:56;;;;;;;30.98;1.33;;;7.10;99.90;;;;;;5009488;28;20099;-59
2022/09/30 04:48:23;;;;;;;30.17;1.50;;;7.00;99.90;;;;;;5020807;28;20077;-61
2022/09/30 04:50:49;;;;;;;33.03;1.35;;;7.00;99.90;;;;;;5025489;28;20057;-51
2022/09/30 04:53:16;;;;;;;29.60;1.15;;;7.10;99.90;;;;;;5011573;28;20050;-55
2022/09/30 04:55:43;;;;;;;54.90;1.85;;;7.10;99.90;;;;;;5024493;28;20110;-53
2022/09/30 04:58:10;;;;;;;37.08;1.33;;;7.10;99.90;;;;;;5009146;28;20049;-55
2022/09/30 05:00:36;;;;;;;33.30;1.05;;;7.00;99.90;;;;;;5006923;28;20507;-60
2022/09/30 05:03:02;;;;;;;14.20;1.17;;;6.90;99.90;;;;;;5008871;28;20048;-59
2022/09/30 05:05:28;;;;;;;4.78;1.00;;;6.80;99.90;;;;;;5007128;28;20049;-67
2022/09/30 05:08:00;;;;;;;8.30;1.38;;;6.80;99.90;;;;;;5014487;28;20096;-58
2022/09/30 05:10:25;;;;;;;2.15;1.10;;;6.70;99.90;;;;;;5024573;28;20051;-64
2022/09/30 05:12:52;;;;;;;7.45;1.20;;;6.70;99.90;;;;;;5024679;28;20060;-58
2022/09/30 05:15:17;;;;;;;11.55;1.40;;;6.70;99.90;;;;;;5008923;28;20049;-63
2022/09/30 05:17:43;;;;;;;5.32;1.30;;;6.80;99.90;;;;;;5007112;28;20041;-64
2022/09/30 05:20:10;;;;;;;1.05;1.05;;;6.80;99.90;;;;;;4997459;28;20050;-66
2022/09/30 05:22:36;;;;;;;2.38;1.38;;;6.70;99.90;;;;;;5006468;28;20049;-65
2022/09/30 05:25:03;;;;;;;2.25;1.20;;;6.70;99.90;;;;;;5005481;28;20800;-60
2022/09/30 05:27:29;;;;;;;6.63;1.77;;;6.70;99.90;;;;;;4988145;28;20464;-62
2022/09/30 05:29:54;;;;;;;2.28;1.08;;;6.70;99.90;;;;;;5002658;28;20045;-65
2022/09/30 05:32:21;;;;;;;1.40;1.40;;;6.60;99.90;;;;;;5010204;28;20408;-58
2022/09/30 05:34:47;;;;;;;1.70;1.60;;;6.60;99.90;;;;;;4991800;28;20080;-65
2022/09/30 05:37:13;;;;;;;1.52;1.40;;;6.60;99.90;;;;;;5011528;28;20195;-57
2022/09/30 05:39:38;;;;;;;1.52;1.42;;;6.50;99.90;;;;;;5010424;28;20056;-66
2022/09/30 05:42:04;;;;;;;3.10;1.38;;;6.40;99.90;;;;;;5009204;28;20160;-59
2022/09/30 05:44:31;;;;;;;17.85;1.67;;;6.30;99.90;;;;;;5005835;28;20362;-59
2022/09/30 05:46:58;;;;;;;1.40;1.33;;;6.30;99.90;;;;;;5009862;28;20412;-63
2022/09/30 05:49:25;;;;;;;1.70;1.60;;;6.30;99.90;;;;;;5007474;28;20053;-57
2022/09/30 05:51:51;;;;;;;1.38;1.30;;;6.30;99.90;;;;;;5001144;28;20129;-66
2022/09/30 05:54:17;;;;;;;1.70;1.60;;;6.30;99.90;;;;;;5028119;28;20046;-59
2022/09/30 05:56:42;;;;;;;2.10;2.00;;;6.40;99.90;;;;;;5002734;28;20053;-68
2022/09/30 05:59:08;;;;;;;1.80;1.70;;;6.40;99.90;;;;;;5006602;28;20049;-58
2022/09/30 06:01:34;;;;;;;1.77;1.70;;;6.40;99.90;;;;;;5004636;28;20597;-58
2022/09/30 06:04:00;;;;;;;2.95;2.28;;;6.40;99.90;;;;;;5019158;28;20050;-58
2022/09/30 06:06:26;;;;;;;2.65;2.00;;;6.40;99.90;;;;;;5005702;28;20050;-64
2022/09/30 06:08:52;;;;;;;2.17;1.98;;;6.50;99.90;;;;;;5002269;28;20065;-60
2022/09/30 06:11:20;;;;;;;3.00;2.00;;;6.50;99.90;;;;;;5011808;28;20061;-58
2022/09/30 06:13:47;;;;;;;2.08;1.92;;;6.60;99.90;;;;;;5010562;28;20052;-64
2022/09/30 06:16:13;;;;;;;2.38;2.17;;;6.60;99.90;;;;;;5029600;28;20099;-65
2022/09/30 06:18:40;;;;;;;2.72;2.28;;;6.70;99.90;;;;;;5031587;28;20069;-63
2022/09/30 06:21:08;;;;;;;2.35;2.20;;;6.70;99.90;;;;;;5031447;28;20049;-57
2022/09/30 06:23:34;;;;;;;3.03;2.15;;;6.70;99.90;;;;;;5013955;28;20044;-63
2022/09/30 06:26:01;;;;;;;2.10;2.00;;;6.70;99.90;;;;;;5031290;28;20072;-59
2022/09/30 06:28:27;;;;;;;2.65;2.20;;;6.80;99.90;;;;;;5023712;28;20045;-64
2022/09/30 06:30:53;;;;;;;2.97;2.60;;;7.00;99.90;;;;;;5015621;28;20168;-61
2022/09/30 06:33:19;;;;;;;3.42;2.70;;;7.10;99.90;;;;;;5008779;28;20087;-62
2022/09/30 06:35:46;;;;;;;3.17;2.50;;;7.30;99.90;;;;;;5029547;28;20045;-58
2022/09/30 06:38:14;;;;;;;3.20;2.90;;;7.50;99.90;;;;;;5016676;28;20106;-61
2022/09/30 06:40:42;;;;;;;2.40;2.30;;;7.70;99.90;;;;;;5047549;28;20061;-61
2022/09/30 06:43:08;;;;;;;2.80;2.70;;;8.00;99.90;;;;;;5022384;28;20721;-65
2022/09/30 06:45:34;;;;;;;3.58;3.28;;;8.20;99.90;;;;;;5028328;28;20045;-64
2022/09/30 06:48:04;;;;;;;2.83;2.65;;;8.40;99.90;;;;;;5016657;28;20104;-65
2022/09/30 06:50:30;;;;;;;5.25;3.72;;;8.50;99.90;;;;;;5028343;28;20054;-56
2022/09/30 06:52:58;;;;;;;6.88;4.13;;;8.60;99.90;;;;;;5045090;28;20073;-63
2022/09/30 06:55:25;;;;;;;3.97;3.53;;;8.80;99.90;;;;;;5028858;28;20381;-58
2022/09/30 06:57:52;;;;;;;3.20;3.00;;;8.90;99.90;;;;;;5020505;28;20052;-64
2022/09/30 07:00:18;;;;;;;4.18;3.45;;;9.00;99.90;;;;;;5023473;28;20136;-66
2022/09/30 07:02:44;;;;;;;3.97;3.05;;;9.10;99.90;;;;;;5006864;28;20548;-60
2022/09/30 07:05:09;;;;;;;3.60;3.30;;;9.20;99.90;;;;;;5007103;28;20051;-68
2022/09/30 07:07:35;;;;;;;4.10;3.72;;;9.20;99.90;;;;;;5008207;28;20041;-63
2022/09/30 07:10:02;;;;;;;6.45;4.00;;;9.10;99.90;;;;;;4991511;28;20064;-64
2022/09/30 07:12:29;;;;;;;5.88;3.58;;;9.10;99.90;;;;;;5004799;28;20034;-64
2022/09/30 07:14:58;;;;;;;3.83;3.38;;;9.10;99.90;;;;;;4997803;28;20049;-65
2022/09/30 07:17:25;;;;;;;5.55;3.25;;;9.00;99.90;;;;;;5008009;28;20053;-62
2022/09/30 07:19:51;;;;;;;6.07;3.45;;;9.00;99.90;;;;;;5003840;28;20083;-69
2022/09/30 07:22:27;;;;;;;3.92;3.60;;;9.00;99.90;;;;;;5008529;28;20447;-64
2022/09/30 07:24:57;;;;;;;5.38;3.58;;;9.10;99.90;;;;;;5005174;28;20101;-64
2022/09/30 07:27:24;;;;;;;3.55;3.25;;;9.00;99.90;;;;;;4992765;28;20404;-66
2022/09/30 07:29:50;;;;;;;4.13;3.20;;;9.20;99.90;;;;;;5005111;28;20041;-61
2022/09/30 07:32:18;;;;;;;2.60;2.50;;;9.30;99.90;;;;;;5006571;28;20574;-63
2022/09/30 07:34:44;;;;;;;3.15;2.75;;;9.40;99.90;;;;;;5006529;28;20037;-61
2022/09/30 07:37:13;;;;;;;4.07;3.10;;;9.50;99.90;;;;;;5007252;28;20041;-62
2022/09/30 07:39:40;;;;;;;3.40;3.10;;;9.60;99.90;;;;;;5008521;28;20546;-60
2022/09/30 07:42:05;;;;;;;3.65;2.95;;;9.80;99.90;;;;;;4992412;28;20483;-69
2022/09/30 07:44:32;;;;;;;5.15;3.65;;;9.90;99.90;;;;;;5005825;28;20128;-64
2022/09/30 07:46:59;;;;;;;5.43;3.08;;;10.00;99.90;;;;;;4988129;28;20053;-63
2022/09/30 07:49:25;;;;;;;4.25;2.95;;;10.10;99.90;;;;;;4987138;28;20038;-60
2022/09/30 07:51:54;;;;;;;5.75;3.35;;;10.20;99.90;;;;;;4993160;28;20108;-65
2022/09/30 07:54:23;;;;;;;3.20;2.90;;;10.30;99.90;;;;;;5003633;28;20049;-63
2022/09/30 07:56:50;;;;;;;9.15;5.40;;;10.50;99.90;;;;;;4985562;28;20042;-62
2022/09/30 07:59:16;;;;;;;3.75;3.17;;;10.60;99.90;;;;;;5005718;28;20335;-59
2022/09/30 08:01:43;;;;;;;4.55;3.97;;;10.70;99.90;;;;;;4976286;28;20092;-67
2022/09/30 08:04:10;;;;;;;3.80;3.47;;;10.90;99.90;;;;;;4997022;28;20054;-62
2022/09/30 08:06:39;;;;;;;4.03;3.63;;;11.00;99.90;;;;;;5002101;28;20128;-62
2022/09/30 08:09:05;;;;;;;3.70;3.40;;;11.10;99.90;;;;;;5005294;28;20045;-64
2022/09/30 08:11:33;;;;;;;6.55;3.95;;;11.20;99.90;;;;;;5023757;28;20095;-64
2022/09/30 08:13:58;;;;;;;8.27;3.85;;;11.30;99.90;;;;;;4997888;28;20149;-66
2022/09/30 08:16:25;;;;;;;4.97;3.22;;;11.50;99.90;;;;;;5008753;28;20128;-59
2022/09/30 08:19:00;;;;;;;3.67;3.38;;;11.60;99.90;;;;;;5007944;28;20524;-63
2022/09/30 08:21:27;;;;;;;3.65;3.35;;;11.80;99.90;;;;;;5008762;28;20502;-58
2022/09/30 08:23:53;;;;;;;3.38;3.08;;;11.90;99.90;;;;;;5007287;28;20053;-68
2022/09/30 08:26:19;;;;;;;3.50;3.03;;;12.00;99.90;;;;;;5007860;28;20488;-64
2022/09/30 08:28:46;;;;;;;3.63;2.78;;;12.20;99.90;;;;;;4991232;28;20498;-61
2022/09/30 08:31:18;;;;;;;3.33;3.03;;;12.30;99.90;;;;;;5007228;28;20064;-61
2022/09/30 08:33:44;;;;;;;3.10;2.78;;;12.40;99.90;;;;;;5006882;28;20045;-60
2022/09/30 08:36:14;;;;;;;3.03;2.55;;;12.50;99.90;;;;;;5007315;28;20052;-64
2022/09/30 08:38:40;;;;;;;6.80;2.53;;;12.60;99.90;;;;;;4990139;28;20491;-62
2022/09/30 08:41:12;;;;;;;2.35;2.15;;;12.70;99.90;;;;;;4987382;28;20072;-61
2022/09/30 08:44:15;;;;;;;6.13;2.50;;;12.80;99.90;;;;;;5006013;28;20128;-65
2022/09/30 08:46:53;;;;;;;3.10;2.45;;;12.90;99.90;;;;;;5004560;28;20041;-59
2022/09/30 08:49:31;;;;;;;2.00;1.90;;;12.90;99.90;;;;;;5009814;28;20480;-69
2022/09/30 08:51:58;;;;;;;4.78;2.38;;;13.00;99.90;;;;;;5007745;28;20085;-60
2022/09/30 08:54:32;;;;;;;5.25;2.55;;;13.00;99.90;;;;;;5006354;28;20049;-61
2022/09/30 08:57:00;;;;;;;2.95;2.10;;;13.10;99.90;;;;;;5006156;28;20081;-65
2022/09/30 08:59:41;;;;;;;2.70;2.22;;;13.10;99.90;;;;;;5005223;28;20051;-60
2022/09/30 09:02:19;;;;;;;2.03;1.90;;;13.20;99.90;;;;;;4989214;28;20072;-66
2022/09/30 09:04:46;;;;;;;3.97;2.45;;;13.30;99.90;;;;;;4990074;28;20053;-64
2022/09/30 09:07:39;;;;;;;3.38;1.80;;;13.40;99.90;;;;;;5000204;28;20378;-63
2022/09/30 09:10:37;;;;;;;3.50;2.67;;;13.40;99.90;;;;;;4991223;28;20042;-63
2022/09/30 09:13:41;;;;;;;2.80;2.58;;;13.60;99.90;;;;;;5001712;28;20053;-63
2022/09/30 09:16:16;;;;;;;3.83;2.60;;;13.70;99.90;;;;;;4973795;28;20464;-68
2022/09/30 09:19:07;;;;;;;2.55;2.13;;;13.80;99.90;;;;;;5006349;28;20519;-60
2022/09/30 09:21:44;;;;;;;3.53;2.20;;;13.80;99.90;;;;;;4984169;28;20046;-68
2022/09/30 09:24:17;;;;;;;3.58;2.00;;;13.90;99.90;;;;;;5015566;28;20488;-64
2022/09/30 09:26:43;;;;;;;2.70;2.10;;;14.00;99.90;;;;;;5001845;28;20048;-69
2022/09/30 09:29:37;;;;;;;2.08;1.98;;;14.10;99.90;;;;;;5004566;28;20049;-65
2022/09/30 09:32:13;;;;;;;2.28;1.90;;;14.20;99.90;;;;;;5004174;28;20053;-70
2022/09/30 09:34:40;;;;;;;4.63;2.03;;;14.20;99.90;;;;;;5003006;28;20133;-67
2022/09/30 09:37:11;;;;;;;2.30;1.90;;;14.30;99.90;;;;;;5003863;28;20103;-65
2022/09/30 09:40:18;;;;;;;2.42;1.70;;;14.40;99.90;;;;;;5001756;28;20041;-67
2022/09/30 09:43:12;;;;;;;2.38;1.63;;;14.50;99.90;;;;;;4949554;28;20219;-65
2022/09/30 09:45:55;;;;;;;2.03;1.65;;;14.60;99.90;;;;;;4996871;28;20054;-67
2022/09/30 09:48:21;;;;;;;1.80;1.70;;;14.70;99.90;;;;;;4992710;28;20065;-65
2022/09/30 09:51:05;;;;;;;2.70;1.90;;;14.80;99.90;;;;;;4964782;28;20500;-63
2022/09/30 09:53:56;;;;;;;1.95;1.75;;;14.80;99.90;;;;;;4993852;28;20124;-68
2022/09/30 09:56:28;;;;;;;2.58;1.80;;;14.90;99.90;;;;;;4995509;28;20236;-60
2022/09/30 09:59:23;;;;;;;4.90;2.20;;;15.00;99.90;;;;;;5001009;28;20088;-63
2022/09/30 10:01:52;;;;;;;2.60;2.30;;;15.00;99.90;;;;;;4978134;28;20057;-66
2022/09/30 10:04:25;;;;;;;1.98;1.88;;;15.10;99.90;;;;;;4998944;28;20187;-62
2022/09/30 10:07:00;;;;;;;2.17;1.88;;;15.10;99.90;;;;;;4996709;28;20060;-63
2022/09/30 10:09:30;;;;;;;4.50;2.45;;;15.20;99.90;;;;;;5001446;28;20155;-59
2022/09/30 10:12:05;;;;;;;1.92;1.80;;;15.20;99.90;;;;;;5007514;28;20053;-65
2022/09/30 10:14:58;;;;;;;2.03;1.92;;;15.30;99.90;;;;;;5024741;28;20042;-66
2022/09/30 10:17:28;;;;;;;2.08;1.90;;;15.30;99.90;;;;;;5000086;28;20061;-59
2022/09/30 10:20:34;;;;;;;2.03;1.92;;;15.40;99.90;;;;;;5024029;28;20140;-62
2022/09/30 10:23:08;;;;;;;3.08;1.90;;;15.40;99.90;;;;;;4971118;28;20133;-66
2022/09/30 10:25:34;;;;;;;2.03;1.83;;;15.50;99.90;;;;;;4946419;28;20043;-65
2022/09/30 10:28:02;;;;;;;2.03;1.90;;;15.60;99.90;;;;;;4996318;28;20140;-71
2022/09/30 10:30:49;;;;;;;4.20;2.30;;;15.60;99.90;;;;;;5027129;28;20452;-60
2022/09/30 10:33:20;;;;;;;2.53;2.10;;;15.70;99.90;;;;;;5026992;28;20061;-60
2022/09/30 10:35:59;;;;;;;9.05;1.63;;;15.70;99.90;;;;;;5000287;28;20046;-66
2022/09/30 10:38:28;;;;;;;2.10;2.00;;;15.70;99.90;;;;;;5025920;28;20045;-60
2022/09/30 10:40:55;;;;;;;1.70;1.63;;;15.70;99.90;;;;;;5011911;28;20045;-61
2022/09/30 10:43:29;;;;;;;2.50;1.38;;;15.60;99.90;;;;;;5010035;28;20383;-60
2022/09/30 10:45:58;;;;;;;1.17;1.00;;;15.70;99.90;;;;;;5013094;28;20081;-63
2022/09/30 10:48:28;;;;;;;1.98;1.50;;;15.70;99.90;;;;;;5010871;28;20045;-61
2022/09/30 10:50:55;;;;;;;1.45;1.35;;;15.80;99.90;;;;;;5023446;28;20042;-59
2022/09/30 10:53:26;;;;;;;1.13;1.13;;;15.80;99.90;;;;;;5008300;28;20467;-62
2022/09/30 10:55:53;;;;;;;1.15;1.00;;;15.80;99.90;;;;;;4989056;28;20049;-60
2022/09/30 10:58:30;;;;;;;0.88;0.88;;;15.90;99.90;;;;;;4988826;28;20655;-69
2022/09/30 11:01:08;;;;;;;1.40;0.98;;;16.00;99.90;;;;;;5005349;28;20037;-59
2022/09/30 11:03:52;;;;;;;1.13;1.02;;;16.10;99.90;;;;;;5003215;28;20149;-64
2022/09/30 11:06:19;;;;;;;1.02;1.02;;;16.10;99.90;;;;;;4989776;28;20057;-67
2022/09/30 11:08:56;;;;;;;1.30;1.20;;;16.20;99.90;;;;;;4985646;28;20095;-63
2022/09/30 11:11:31;;;;;;;2.83;1.27;;;16.20;99.90;;;;;;4998365;28;20049;-59
2022/09/30 11:14:24;;;;;;;1.73;1.17;;;16.20;99.90;;;;;;5010762;28;20054;-59
2022/09/30 11:17:20;;;;;;;1.10;1.10;;;16.20;99.90;;;;;;5009583;28;20048;-70
2022/09/30 11:19:53;;;;;;;1.52;1.45;;;16.30;99.90;;;;;;5000263;28;20057;-65
2022/09/30 11:22:26;;;;;;;1.50;1.40;;;16.20;99.90;;;;;;4993331;28;20104;-59
2022/09/30 11:24:54;;;;;;;1.73;1.58;;;16.30;99.90;;;;;;5010363;28;20041;-61
2022/09/30 11:27:48;;;;;;;1.88;1.77;;;16.30;99.90;;;;;;5010283;28;20060;-64
2022/09/30 11:30:54;;;;;;;2.60;2.28;;;16.30;99.90;;;;;;4997684;28;20053;-63
2022/09/30 11:33:31;;;;;;;1.70;1.60;;;16.30;99.90;;;;;;5007393;28;20053;-64
2022/09/30 11:36:12;;;;;;;1.50;1.40;;;16.30;99.90;;;;;;5010715;28;20053;-60
2022/09/30 11:39:06;;;;;;;1.70;1.60;;;16.40;99.90;;;;;;5008879;28;20060;-66
2022/09/30 11:41:48;;;;;;;2.67;1.52;;;16.50;99.90;;;;;;5010607;28;20049;-66
2022/09/30 11:44:25;;;;;;;1.85;1.73;;;16.40;99.60;;;;;;4993361;28;20046;-64
2022/09/30 11:47:05;;;;;;;2.13;1.17;;;16.40;99.90;;;;;;5009136;28;20440;-69
2022/09/30 11:49:51;;;;;;;2.88;1.83;;;16.50;99.90;;;;;;5016831;28;20496;-63
2022/09/30 11:52:54;;;;;;;2.17;1.40;;;16.60;99.90;;;;;;5013255;28;20045;-65
2022/09/30 11:55:34;;;;;;;1.42;1.08;;;16.60;99.90;;;;;;4975916;28;20129;-63
2022/09/30 11:58:18;;;;;;;0.68;0.68;;;16.70;99.40;;;;;;5010349;28;20086;-67
2022/09/30 12:00:50;;;;;;;1.65;0.90;;;16.70;96.10;;;;;;5008424;28;20173;-62
2022/09/30 12:03:31;;;;;;;1.42;0.70;;;16.70;93.80;;;;;;5006327;28;20057;-68
2022/09/30 12:06:02;;;;;;;1.65;0.77;;;16.70;96.60;;;;;;4993682;28;20365;-59
2022/09/30 12:08:49;;;;;;;0.98;0.80;;;16.70;92.70;;;;;;5008621;28;20057;-67
2022/09/30 12:11:25;;;;;;;0.80;0.73;;;16.80;97.00;;;;;;4995958;28;20137;-58
2022/09/30 12:13:56;;;;;;;1.80;0.73;;;16.60;92.00;;;;;;5025248;28;20108;-67
2022/09/30 12:16:30;;;;;;;0.93;0.55;;;16.60;95.60;;;;;;5009773;28;20057;-67
2022/09/30 12:19:13;;;;;;;0.60;0.60;;;16.60;96.20;;;;;;5009472;28;20075;-63
2022/09/30 12:21:55;;;;;;;0.55;0.55;;;16.60;94.90;;;;;;4996678;28;20061;-65
2022/09/30 12:24:26;;;;;;;1.40;0.85;;;16.40;96.60;;;;;;5025598;28;20049;-64
2022/09/30 12:26:52;;;;;;;0.85;0.70;;;16.60;96.40;;;;;;5025873;28;20049;-63
2022/09/30 12:32:51;;;;;;;1.17;0.80;;;16.80;94.00;;;;;;5003508;28;20050;-60
2022/09/30 12:35:36;;;;;;;0.80;0.80;;;16.90;93.80;;;;;;5024484;28;20053;-62
2022/09/30 12:38:36;;;;;;;6.00;1.00;;;16.70;92.30;;;;;;5025948;28;20400;-59
2022/09/30 12:41:10;;;;;;;;;;;16.60;95.00;;;;;;5022344;28;20111;-65
2022/09/30 12:44:01;;;;;;;1.02;0.93;;;16.40;93.20;;;;;;4994419;28;20395;-61
2022/09/30 12:46:53;;;;;;;4.85;1.30;;;16.20;97.10;;;;;;5008933;28;20045;-59
2022/09/30 12:49:23;;;;;;;3.45;1.20;;;16.20;98.80;;;;;;5008688;28;20045;-60
2022/09/30 12:51:53;;;;;;;1.13;1.00;;;16.40;96.90;;;;;;5001164;28;20124;-63
2022/09/30 12:54:39;;;;;;;1.85;1.10;;;16.50;94.00;;;;;;5018287;28;20056;-70
2022/09/30 12:57:08;;;;;;;1.00;0.80;;;16.60;95.50;;;;;;5008221;28;20053;-60
2022/09/30 12:59:37;;;;;;;1.10;1.10;;;16.70;94.60;;;;;;5008801;28;20848;-60
2022/09/30 13:02:05;;;;;;;1.20;1.10;;;16.60;92.60;;;;;;5025588;28;20045;-67
2022/09/30 13:04:38;;;;;;;5.25;0.93;;;16.70;96.00;;;;;;5014685;28;20128;-70
2022/09/30 13:07:17;;;;;;;1.10;1.00;;;16.60;95.10;;;;;;5008970;28;20037;-65
2022/09/30 13:10:25;;;;;;;0.70;0.70;;;16.50;93.00;;;;;;5023992;28;20080;-63
2022/09/30 13:13:15;;;;;;;3.33;1.00;;;16.50;91.80;;;;;;5026104;28;20045;-61
2022/09/30 13:15:42;;;;;;;1.42;1.00;;;16.60;91.60;;;;;;5022542;28;20387;-65
2022/09/30 13:18:34;;;;;;;0.80;0.70;;;16.60;91.50;;;;;;5000673;28;20496;-64
2022/09/30 13:21:03;;;;;;;4.30;1.10;;;16.80;91.80;;;;;;4952704;28;20053;-67
2022/09/30 13:23:52;;;;;;;2.50;1.17;;;16.80;92.40;;;;;;4988426;28;20049;-60
2022/09/30 13:26:21;;;;;;;0.70;0.70;;;16.70;89.50;;;;;;4987565;28;20049;-70
2022/09/30 13:28:48;;;;;;;2.78;1.15;;;16.50;85.80;;;;;;4988152;28;20965;-62
2022/09/30 13:31:25;;;;;;;0.90;0.90;;;16.40;90.30;;;;;;4992937;28;20393;-64